sensor_id;sensor_type;location;lat;lon;timestamp;P1;durP1;ratioP1;P2;durP2;ratioP2
5060;SDS011;2549;52.128;21.068;2024-01-15T00:00:21;5.10;;;3.38;;
5060;SDS011;2549;52.128;21.068;2024-01-15T00:02:48;6.88;;;3.85;;
5060;SDS011;2549;52.128;21.068;2024-01-15T00:05:15;4.75;;;3.65;;
5060;SDS011;2549;52.128;21.068;2024-01-15T00:07:42;6.53;;;4.35;;
5060;SDS011;2549;52.128;21.068;2024-01-15T00:10:09;7.38;;;3.97;;
5060;SDS011;2549;52.128;21.068;2024-01-15T00:12:36;6.45;;;3.88;;
5060;SDS011;2549;52.128;21.068;2024-01-15T00:15:03;6.15;;;4.50;;
5060;SDS011;2549;52.128;21.068;2024-01-15T00:17:31;4.30;;;3.90;;
5060;SDS011;2549;52.128;21.068;2024-01-15T00:19:58;9.25;;;4.10;;
5060;SDS011;2549;52.128;21.068;2024-01-15T00:22:25;7.78;;;3.97;;
5060;SDS011;2549;52.128;21.068;2024-01-15T00:24:53;6.22;;;3.97;;
5060;SDS011;2549;52.128;21.068;2024-01-15T00:27:20;7.40;;;4.55;;
5060;SDS011;2549;52.128;21.068;2024-01-15T00:29:48;8.90;;;4.00;;
5060;SDS011;2549;52.128;21.068;2024-01-15T00:32:16;8.52;;;4.72;;
5060;SDS011;2549;52.128;21.068;2024-01-15T00:34:43;7.00;;;4.68;;
5060;SDS011;2549;52.128;21.068;2024-01-15T00:37:10;8.15;;;5.28;;
5060;SDS011;2549;52.128;21.068;2024-01-15T00:39:37;6.50;;;4.45;;
5060;SDS011;2549;52.128;21.068;2024-01-15T00:42:04;6.22;;;4.28;;
5060;SDS011;2549;52.128;21.068;2024-01-15T00:44:31;6.50;;;4.38;;
5060;SDS011;2549;52.128;21.068;2024-01-15T00:46:58;7.93;;;4.85;;
5060;SDS011;2549;52.128;21.068;2024-01-15T00:49:26;6.47;;;4.13;;
5060;SDS011;2549;52.128;21.068;2024-01-15T00:51:54;6.85;;;4.20;;
5060;SDS011;2549;52.128;21.068;2024-01-15T00:54:20;5.68;;;4.40;;
5060;SDS011;2549;52.128;21.068;2024-01-15T00:56:47;8.25;;;4.30;;
5060;SDS011;2549;52.128;21.068;2024-01-15T00:59:16;6.20;;;4.80;;
5060;SDS011;2549;52.128;21.068;2024-01-15T01:01:43;7.47;;;4.35;;
5060;SDS011;2549;52.128;21.068;2024-01-15T01:04:10;7.82;;;4.80;;
5060;SDS011;2549;52.128;21.068;2024-01-15T01:06:37;5.60;;;4.78;;
5060;SDS011;2549;52.128;21.068;2024-01-15T01:09:04;7.45;;;4.97;;
5060;SDS011;2549;52.128;21.068;2024-01-15T01:11:31;7.60;;;4.82;;
5060;SDS011;2549;52.128;21.068;2024-01-15T01:13:58;9.48;;;4.75;;
5060;SDS011;2549;52.128;21.068;2024-01-15T01:16:25;6.35;;;4.35;;
5060;SDS011;2549;52.128;21.068;2024-01-15T01:18:52;7.13;;;5.20;;
5060;SDS011;2549;52.128;21.068;2024-01-15T01:21:19;9.85;;;4.88;;
5060;SDS011;2549;52.128;21.068;2024-01-15T01:23:46;8.38;;;5.45;;
5060;SDS011;2549;52.128;21.068;2024-01-15T01:26:16;7.63;;;5.30;;
5060;SDS011;2549;52.128;21.068;2024-01-15T01:28:44;6.50;;;5.13;;
5060;SDS011;2549;52.128;21.068;2024-01-15T01:31:11;10.82;;;5.22;;
5060;SDS011;2549;52.128;21.068;2024-01-15T01:33:38;10.68;;;5.80;;
5060;SDS011;2549;52.128;21.068;2024-01-15T01:36:09;9.35;;;6.20;;
5060;SDS011;2549;52.128;21.068;2024-01-15T01:38:36;8.60;;;5.50;;
5060;SDS011;2549;52.128;21.068;2024-01-15T01:41:04;8.20;;;5.75;;
5060;SDS011;2549;52.128;21.068;2024-01-15T01:43:31;9.52;;;6.05;;
5060;SDS011;2549;52.128;21.068;2024-01-15T01:45:58;7.78;;;6.13;;
5060;SDS011;2549;52.128;21.068;2024-01-15T01:48:27;9.10;;;6.03;;
5060;SDS011;2549;52.128;21.068;2024-01-15T01:50:57;8.63;;;6.13;;
5060;SDS011;2549;52.128;21.068;2024-01-15T01:53:28;10.48;;;6.03;;
5060;SDS011;2549;52.128;21.068;2024-01-15T01:55:58;11.68;;;6.05;;
5060;SDS011;2549;52.128;21.068;2024-01-15T01:58:25;11.98;;;6.07;;
5060;SDS011;2549;52.128;21.068;2024-01-15T02:00:52;10.75;;;6.47;;
5060;SDS011;2549;52.128;21.068;2024-01-15T02:03:20;11.07;;;6.10;;
5060;SDS011;2549;52.128;21.068;2024-01-15T02:05:47;11.95;;;5.70;;
5060;SDS011;2549;52.128;21.068;2024-01-15T02:08:16;12.27;;;6.28;;
5060;SDS011;2549;52.128;21.068;2024-01-15T02:10:43;10.02;;;5.75;;
5060;SDS011;2549;52.128;21.068;2024-01-15T02:13:10;8.23;;;5.40;;
5060;SDS011;2549;52.128;21.068;2024-01-15T02:15:37;10.00;;;5.95;;
5060;SDS011;2549;52.128;21.068;2024-01-15T02:18:05;7.60;;;5.80;;
5060;SDS011;2549;52.128;21.068;2024-01-15T02:20:35;10.55;;;5.53;;
5060;SDS011;2549;52.128;21.068;2024-01-15T02:23:12;10.73;;;6.20;;
5060;SDS011;2549;52.128;21.068;2024-01-15T02:25:40;16.38;;;5.93;;
5060;SDS011;2549;52.128;21.068;2024-01-15T02:28:10;7.30;;;4.85;;
5060;SDS011;2549;52.128;21.068;2024-01-15T02:30:44;9.90;;;5.60;;
5060;SDS011;2549;52.128;21.068;2024-01-15T02:33:11;9.40;;;5.97;;
5060;SDS011;2549;52.128;21.068;2024-01-15T02:35:39;9.38;;;6.22;;
5060;SDS011;2549;52.128;21.068;2024-01-15T02:38:07;10.43;;;5.88;;
5060;SDS011;2549;52.128;21.068;2024-01-15T02:40:35;8.30;;;5.70;;
5060;SDS011;2549;52.128;21.068;2024-01-15T02:43:02;10.02;;;5.70;;
5060;SDS011;2549;52.128;21.068;2024-01-15T02:45:29;8.68;;;5.43;;
5060;SDS011;2549;52.128;21.068;2024-01-15T02:47:56;8.80;;;5.93;;
5060;SDS011;2549;52.128;21.068;2024-01-15T02:50:23;8.10;;;5.30;;
5060;SDS011;2549;52.128;21.068;2024-01-15T02:52:50;7.35;;;5.30;;
5060;SDS011;2549;52.128;21.068;2024-01-15T02:55:17;7.15;;;5.30;;
5060;SDS011;2549;52.128;21.068;2024-01-15T02:57:44;8.98;;;5.45;;
5060;SDS011;2549;52.128;21.068;2024-01-15T03:00:11;8.55;;;5.55;;
5060;SDS011;2549;52.128;21.068;2024-01-15T03:02:40;9.57;;;5.57;;
5060;SDS011;2549;52.128;21.068;2024-01-15T03:05:11;6.35;;;5.22;;
5060;SDS011;2549;52.128;21.068;2024-01-15T03:07:38;6.65;;;4.93;;
5060;SDS011;2549;52.128;21.068;2024-01-15T03:10:05;10.27;;;6.32;;
5060;SDS011;2549;52.128;21.068;2024-01-15T03:12:33;18.80;;;6.07;;
5060;SDS011;2549;52.128;21.068;2024-01-15T03:15:00;7.85;;;5.43;;
5060;SDS011;2549;52.128;21.068;2024-01-15T03:17:27;7.13;;;5.22;;
5060;SDS011;2549;52.128;21.068;2024-01-15T03:19:54;9.35;;;5.75;;
5060;SDS011;2549;52.128;21.068;2024-01-15T03:22:21;9.48;;;5.93;;
5060;SDS011;2549;52.128;21.068;2024-01-15T03:24:48;10.88;;;7.25;;
5060;SDS011;2549;52.128;21.068;2024-01-15T03:27:15;11.57;;;6.53;;
5060;SDS011;2549;52.128;21.068;2024-01-15T03:29:42;10.77;;;6.15;;
5060;SDS011;2549;52.128;21.068;2024-01-15T03:32:09;9.55;;;5.95;;
5060;SDS011;2549;52.128;21.068;2024-01-15T03:34:36;8.95;;;5.93;;
5060;SDS011;2549;52.128;21.068;2024-01-15T03:37:03;8.23;;;5.22;;
5060;SDS011;2549;52.128;21.068;2024-01-15T03:39:30;9.80;;;5.80;;
5060;SDS011;2549;52.128;21.068;2024-01-15T03:41:57;10.85;;;6.60;;
5060;SDS011;2549;52.128;21.068;2024-01-15T03:44:24;10.40;;;6.18;;
5060;SDS011;2549;52.128;21.068;2024-01-15T03:46:51;9.50;;;5.85;;
5060;SDS011;2549;52.128;21.068;2024-01-15T03:49:18;10.48;;;5.80;;
5060;SDS011;2549;52.128;21.068;2024-01-15T03:51:45;12.57;;;5.90;;
5060;SDS011;2549;52.128;21.068;2024-01-15T03:54:12;8.00;;;5.60;;
5060;SDS011;2549;52.128;21.068;2024-01-15T03:56:41;10.95;;;5.70;;
5060;SDS011;2549;52.128;21.068;2024-01-15T03:59:08;9.15;;;5.90;;
5060;SDS011;2549;52.128;21.068;2024-01-15T04:01:35;14.45;;;6.28;;
5060;SDS011;2549;52.128;21.068;2024-01-15T04:04:02;8.85;;;5.85;;
5060;SDS011;2549;52.128;21.068;2024-01-15T04:06:29;10.73;;;5.40;;
5060;SDS011;2549;52.128;21.068;2024-01-15T04:08:56;11.35;;;6.35;;
5060;SDS011;2549;52.128;21.068;2024-01-15T04:11:23;10.40;;;5.88;;
5060;SDS011;2549;52.128;21.068;2024-01-15T04:13:49;11.07;;;5.53;;
5060;SDS011;2549;52.128;21.068;2024-01-15T04:16:16;11.13;;;6.13;;
5060;SDS011;2549;52.128;21.068;2024-01-15T04:18:43;7.88;;;5.30;;
5060;SDS011;2549;52.128;21.068;2024-01-15T04:21:10;12.80;;;6.00;;
5060;SDS011;2549;52.128;21.068;2024-01-15T04:23:38;9.52;;;5.18;;
5060;SDS011;2549;52.128;21.068;2024-01-15T04:26:05;13.30;;;5.18;;
5060;SDS011;2549;52.128;21.068;2024-01-15T04:28:32;11.48;;;5.95;;
5060;SDS011;2549;52.128;21.068;2024-01-15T04:30:59;9.02;;;5.63;;
5060;SDS011;2549;52.128;21.068;2024-01-15T04:33:26;7.80;;;5.15;;
5060;SDS011;2549;52.128;21.068;2024-01-15T04:35:53;9.20;;;5.22;;
5060;SDS011;2549;52.128;21.068;2024-01-15T04:38:20;7.65;;;5.32;;
5060;SDS011;2549;52.128;21.068;2024-01-15T04:40:47;10.63;;;5.75;;
5060;SDS011;2549;52.128;21.068;2024-01-15T04:43:14;8.95;;;5.15;;
5060;SDS011;2549;52.128;21.068;2024-01-15T04:45:40;12.10;;;5.88;;
5060;SDS011;2549;52.128;21.068;2024-01-15T04:48:08;4.72;;;4.30;;
5060;SDS011;2549;52.128;21.068;2024-01-15T04:50:35;8.55;;;5.70;;
5060;SDS011;2549;52.128;21.068;2024-01-15T04:53:02;9.23;;;5.05;;
5060;SDS011;2549;52.128;21.068;2024-01-15T04:55:29;8.15;;;5.22;;
5060;SDS011;2549;52.128;21.068;2024-01-15T04:57:55;8.68;;;5.78;;
5060;SDS011;2549;52.128;21.068;2024-01-15T05:00:22;8.05;;;4.57;;
5060;SDS011;2549;52.128;21.068;2024-01-15T05:02:49;6.65;;;4.43;;
5060;SDS011;2549;52.128;21.068;2024-01-15T05:05:16;8.32;;;5.72;;
5060;SDS011;2549;52.128;21.068;2024-01-15T05:07:43;7.97;;;5.10;;
5060;SDS011;2549;52.128;21.068;2024-01-15T05:10:10;9.10;;;5.05;;
5060;SDS011;2549;52.128;21.068;2024-01-15T05:12:37;7.50;;;4.45;;
5060;SDS011;2549;52.128;21.068;2024-01-15T05:15:04;6.40;;;5.00;;
5060;SDS011;2549;52.128;21.068;2024-01-15T05:17:31;5.35;;;4.45;;
5060;SDS011;2549;52.128;21.068;2024-01-15T05:19:58;8.57;;;4.82;;
5060;SDS011;2549;52.128;21.068;2024-01-15T05:22:25;8.73;;;5.03;;
5060;SDS011;2549;52.128;21.068;2024-01-15T05:24:52;5.85;;;4.80;;
5060;SDS011;2549;52.128;21.068;2024-01-15T05:27:19;7.10;;;5.13;;
5060;SDS011;2549;52.128;21.068;2024-01-15T05:29:46;9.05;;;4.88;;
5060;SDS011;2549;52.128;21.068;2024-01-15T05:32:13;9.40;;;5.00;;
5060;SDS011;2549;52.128;21.068;2024-01-15T05:34:40;6.85;;;4.90;;
5060;SDS011;2549;52.128;21.068;2024-01-15T05:37:07;6.07;;;4.60;;
5060;SDS011;2549;52.128;21.068;2024-01-15T05:39:34;12.43;;;6.53;;
5060;SDS011;2549;52.128;21.068;2024-01-15T05:42:01;8.32;;;4.95;;
5060;SDS011;2549;52.128;21.068;2024-01-15T05:44:27;5.55;;;4.40;;
5060;SDS011;2549;52.128;21.068;2024-01-15T05:46:54;7.85;;;4.72;;
5060;SDS011;2549;52.128;21.068;2024-01-15T05:49:21;5.20;;;4.68;;
5060;SDS011;2549;52.128;21.068;2024-01-15T05:51:48;8.75;;;4.07;;
5060;SDS011;2549;52.128;21.068;2024-01-15T05:54:15;8.48;;;5.10;;
5060;SDS011;2549;52.128;21.068;2024-01-15T05:56:42;6.07;;;4.43;;
5060;SDS011;2549;52.128;21.068;2024-01-15T05:59:09;4.97;;;3.92;;
5060;SDS011;2549;52.128;21.068;2024-01-15T06:01:40;7.57;;;4.85;;
5060;SDS011;2549;52.128;21.068;2024-01-15T06:04:07;8.00;;;4.10;;
5060;SDS011;2549;52.128;21.068;2024-01-15T06:06:34;5.72;;;4.38;;
5060;SDS011;2549;52.128;21.068;2024-01-15T06:09:02;6.18;;;4.03;;
5060;SDS011;2549;52.128;21.068;2024-01-15T06:11:31;11.32;;;4.78;;
5060;SDS011;2549;52.128;21.068;2024-01-15T06:13:58;5.00;;;4.50;;
5060;SDS011;2549;52.128;21.068;2024-01-15T06:16:26;5.18;;;4.45;;
5060;SDS011;2549;52.128;21.068;2024-01-15T06:18:54;6.07;;;4.30;;
5060;SDS011;2549;52.128;21.068;2024-01-15T06:21:21;5.78;;;4.75;;
5060;SDS011;2549;52.128;21.068;2024-01-15T06:23:48;6.50;;;4.45;;
5060;SDS011;2549;52.128;21.068;2024-01-15T06:26:15;5.72;;;4.30;;
5060;SDS011;2549;52.128;21.068;2024-01-15T06:28:42;5.50;;;4.13;;
5060;SDS011;2549;52.128;21.068;2024-01-15T06:31:09;4.45;;;4.15;;
5060;SDS011;2549;52.128;21.068;2024-01-15T06:33:36;8.07;;;4.78;;
5060;SDS011;2549;52.128;21.068;2024-01-15T06:36:05;6.03;;;4.78;;
5060;SDS011;2549;52.128;21.068;2024-01-15T06:38:32;7.68;;;5.28;;
5060;SDS011;2549;52.128;21.068;2024-01-15T06:40:59;6.28;;;4.28;;
5060;SDS011;2549;52.128;21.068;2024-01-15T06:43:26;4.85;;;4.22;;
5060;SDS011;2549;52.128;21.068;2024-01-15T06:45:53;6.32;;;4.30;;
5060;SDS011;2549;52.128;21.068;2024-01-15T06:48:20;6.90;;;4.72;;
5060;SDS011;2549;52.128;21.068;2024-01-15T06:50:47;7.60;;;4.38;;
5060;SDS011;2549;52.128;21.068;2024-01-15T06:53:14;5.03;;;4.47;;
5060;SDS011;2549;52.128;21.068;2024-01-15T06:55:41;6.90;;;4.65;;
5060;SDS011;2549;52.128;21.068;2024-01-15T06:58:07;4.65;;;4.22;;
5060;SDS011;2549;52.128;21.068;2024-01-15T07:00:34;7.60;;;4.65;;
5060;SDS011;2549;52.128;21.068;2024-01-15T07:03:01;4.43;;;4.00;;
5060;SDS011;2549;52.128;21.068;2024-01-15T07:05:29;5.25;;;4.07;;
5060;SDS011;2549;52.128;21.068;2024-01-15T07:07:57;5.47;;;3.65;;
5060;SDS011;2549;52.128;21.068;2024-01-15T07:10:24;5.45;;;3.95;;
5060;SDS011;2549;52.128;21.068;2024-01-15T07:12:51;7.47;;;5.30;;
5060;SDS011;2549;52.128;21.068;2024-01-15T07:15:18;4.55;;;4.05;;
5060;SDS011;2549;52.128;21.068;2024-01-15T07:17:45;7.10;;;4.55;;
5060;SDS011;2549;52.128;21.068;2024-01-15T07:20:11;7.28;;;4.00;;
5060;SDS011;2549;52.128;21.068;2024-01-15T07:22:38;5.20;;;4.00;;
5060;SDS011;2549;52.128;21.068;2024-01-15T07:25:05;4.97;;;4.43;;
5060;SDS011;2549;52.128;21.068;2024-01-15T07:27:33;5.38;;;4.25;;
5060;SDS011;2549;52.128;21.068;2024-01-15T07:30:00;7.03;;;4.95;;
5060;SDS011;2549;52.128;21.068;2024-01-15T07:32:28;5.93;;;4.22;;
5060;SDS011;2549;52.128;21.068;2024-01-15T07:34:55;6.85;;;5.32;;
5060;SDS011;2549;52.128;21.068;2024-01-15T07:37:22;6.65;;;5.00;;
5060;SDS011;2549;52.128;21.068;2024-01-15T07:39:50;8.45;;;4.15;;
5060;SDS011;2549;52.128;21.068;2024-01-15T07:42:17;5.60;;;4.30;;
5060;SDS011;2549;52.128;21.068;2024-01-15T07:44:44;6.07;;;4.40;;
5060;SDS011;2549;52.128;21.068;2024-01-15T07:47:11;11.73;;;5.60;;
5060;SDS011;2549;52.128;21.068;2024-01-15T07:49:38;8.52;;;5.03;;
5060;SDS011;2549;52.128;21.068;2024-01-15T07:52:05;6.75;;;4.65;;
5060;SDS011;2549;52.128;21.068;2024-01-15T07:54:32;5.22;;;4.18;;
5060;SDS011;2549;52.128;21.068;2024-01-15T07:57:00;6.05;;;4.03;;
5060;SDS011;2549;52.128;21.068;2024-01-15T07:59:29;7.13;;;4.82;;
5060;SDS011;2549;52.128;21.068;2024-01-15T08:01:58;7.30;;;4.93;;
5060;SDS011;2549;52.128;21.068;2024-01-15T08:04:26;5.25;;;4.43;;
5060;SDS011;2549;52.128;21.068;2024-01-15T08:06:53;5.53;;;4.40;;
5060;SDS011;2549;52.128;21.068;2024-01-15T08:09:20;8.13;;;5.07;;
5060;SDS011;2549;52.128;21.068;2024-01-15T08:11:47;5.25;;;4.35;;
5060;SDS011;2549;52.128;21.068;2024-01-15T08:14:15;6.00;;;4.22;;
5060;SDS011;2549;52.128;21.068;2024-01-15T08:16:44;6.22;;;4.10;;
5060;SDS011;2549;52.128;21.068;2024-01-15T08:19:11;8.30;;;4.60;;
5060;SDS011;2549;52.128;21.068;2024-01-15T08:21:38;7.00;;;4.22;;
5060;SDS011;2549;52.128;21.068;2024-01-15T08:24:05;5.15;;;4.15;;
5060;SDS011;2549;52.128;21.068;2024-01-15T08:26:32;5.18;;;3.22;;
5060;SDS011;2549;52.128;21.068;2024-01-15T08:28:59;4.25;;;3.20;;
5060;SDS011;2549;52.128;21.068;2024-01-15T08:31:26;7.53;;;3.63;;
5060;SDS011;2549;52.128;21.068;2024-01-15T08:33:54;4.10;;;3.58;;
5060;SDS011;2549;52.128;21.068;2024-01-15T08:36:22;5.15;;;3.60;;
5060;SDS011;2549;52.128;21.068;2024-01-15T08:38:51;4.53;;;3.50;;
5060;SDS011;2549;52.128;21.068;2024-01-15T08:41:18;5.82;;;3.97;;
5060;SDS011;2549;52.128;21.068;2024-01-15T08:43:44;7.30;;;4.50;;
5060;SDS011;2549;52.128;21.068;2024-01-15T08:46:11;6.30;;;4.22;;
5060;SDS011;2549;52.128;21.068;2024-01-15T08:48:38;4.65;;;4.22;;
5060;SDS011;2549;52.128;21.068;2024-01-15T08:51:06;4.78;;;3.90;;
5060;SDS011;2549;52.128;21.068;2024-01-15T08:53:34;6.75;;;4.00;;
5060;SDS011;2549;52.128;21.068;2024-01-15T08:56:01;5.05;;;4.00;;
5060;SDS011;2549;52.128;21.068;2024-01-15T08:58:28;5.03;;;4.07;;
5060;SDS011;2549;52.128;21.068;2024-01-15T09:00:55;4.40;;;3.78;;
5060;SDS011;2549;52.128;21.068;2024-01-15T09:03:23;5.15;;;4.20;;
5060;SDS011;2549;52.128;21.068;2024-01-15T09:05:50;4.15;;;3.80;;
5060;SDS011;2549;52.128;21.068;2024-01-15T09:08:17;5.95;;;3.88;;
5060;SDS011;2549;52.128;21.068;2024-01-15T09:10:44;4.63;;;4.20;;
5060;SDS011;2549;52.128;21.068;2024-01-15T09:13:12;3.97;;;3.63;;
5060;SDS011;2549;52.128;21.068;2024-01-15T09:15:39;5.38;;;3.80;;
5060;SDS011;2549;52.128;21.068;2024-01-15T09:18:06;3.58;;;3.25;;
5060;SDS011;2549;52.128;21.068;2024-01-15T09:20:34;5.07;;;3.78;;
5060;SDS011;2549;52.128;21.068;2024-01-15T09:23:01;4.43;;;3.75;;
5060;SDS011;2549;52.128;21.068;2024-01-15T09:25:29;9.43;;;3.97;;
5060;SDS011;2549;52.128;21.068;2024-01-15T09:27:56;11.07;;;3.85;;
5060;SDS011;2549;52.128;21.068;2024-01-15T09:30:23;5.90;;;3.00;;
5060;SDS011;2549;52.128;21.068;2024-01-15T09:32:50;4.40;;;3.80;;
5060;SDS011;2549;52.128;21.068;2024-01-15T09:35:17;14.63;;;3.53;;
5060;SDS011;2549;52.128;21.068;2024-01-15T09:37:46;6.68;;;3.78;;
5060;SDS011;2549;52.128;21.068;2024-01-15T09:40:14;3.08;;;2.75;;
5060;SDS011;2549;52.128;21.068;2024-01-15T09:42:44;3.92;;;3.00;;
5060;SDS011;2549;52.128;21.068;2024-01-15T09:45:13;3.53;;;2.72;;
5060;SDS011;2549;52.128;21.068;2024-01-15T09:47:40;2.90;;;2.70;;
5060;SDS011;2549;52.128;21.068;2024-01-15T09:50:11;4.43;;;3.20;;
5060;SDS011;2549;52.128;21.068;2024-01-15T09:52:40;7.28;;;3.08;;
5060;SDS011;2549;52.128;21.068;2024-01-15T09:55:08;3.75;;;2.83;;
5060;SDS011;2549;52.128;21.068;2024-01-15T09:57:36;3.60;;;2.40;;
5060;SDS011;2549;52.128;21.068;2024-01-15T10:00:04;2.63;;;2.33;;
5060;SDS011;2549;52.128;21.068;2024-01-15T10:02:33;2.90;;;2.60;;
5060;SDS011;2549;52.128;21.068;2024-01-15T10:05:02;3.03;;;2.40;;
5060;SDS011;2549;52.128;21.068;2024-01-15T10:07:29;5.88;;;2.17;;
5060;SDS011;2549;52.128;21.068;2024-01-15T10:10:00;5.05;;;2.83;;
5060;SDS011;2549;52.128;21.068;2024-01-15T10:12:27;2.88;;;2.00;;
5060;SDS011;2549;52.128;21.068;2024-01-15T10:14:58;4.35;;;2.67;;
5060;SDS011;2549;52.128;21.068;2024-01-15T10:17:25;7.45;;;2.05;;
5060;SDS011;2549;52.128;21.068;2024-01-15T10:19:55;5.40;;;2.47;;
5060;SDS011;2549;52.128;21.068;2024-01-15T10:22:23;3.58;;;2.20;;
5060;SDS011;2549;52.128;21.068;2024-01-15T10:24:51;5.60;;;2.58;;
5060;SDS011;2549;52.128;21.068;2024-01-15T10:27:18;5.75;;;2.60;;
5060;SDS011;2549;52.128;21.068;2024-01-15T10:29:45;3.20;;;2.53;;
5060;SDS011;2549;52.128;21.068;2024-01-15T10:32:11;2.78;;;2.00;;
5060;SDS011;2549;52.128;21.068;2024-01-15T10:34:39;5.78;;;2.85;;
5060;SDS011;2549;52.128;21.068;2024-01-15T10:37:08;2.92;;;2.20;;
5060;SDS011;2549;52.128;21.068;2024-01-15T10:39:35;6.88;;;2.55;;
5060;SDS011;2549;52.128;21.068;2024-01-15T10:42:04;3.83;;;2.40;;
5060;SDS011;2549;52.128;21.068;2024-01-15T10:44:33;3.08;;;2.30;;
5060;SDS011;2549;52.128;21.068;2024-01-15T10:47:01;2.80;;;2.60;;
5060;SDS011;2549;52.128;21.068;2024-01-15T10:49:28;5.03;;;3.05;;
5060;SDS011;2549;52.128;21.068;2024-01-15T10:52:00;2.53;;;2.20;;
5060;SDS011;2549;52.128;21.068;2024-01-15T10:54:28;2.90;;;2.38;;
5060;SDS011;2549;52.128;21.068;2024-01-15T10:56:56;4.13;;;2.33;;
5060;SDS011;2549;52.128;21.068;2024-01-15T10:59:24;5.22;;;3.13;;
5060;SDS011;2549;52.128;21.068;2024-01-15T11:01:51;3.45;;;2.60;;
5060;SDS011;2549;52.128;21.068;2024-01-15T11:04:23;3.58;;;2.80;;
5060;SDS011;2549;52.128;21.068;2024-01-15T11:06:53;3.38;;;2.90;;
5060;SDS011;2549;52.128;21.068;2024-01-15T11:09:23;4.15;;;2.78;;
5060;SDS011;2549;52.128;21.068;2024-01-15T11:11:52;4.47;;;3.03;;
5060;SDS011;2549;52.128;21.068;2024-01-15T11:14:35;6.78;;;3.70;;
5060;SDS011;2549;52.128;21.068;2024-01-15T11:17:12;6.85;;;3.63;;
5060;SDS011;2549;52.128;21.068;2024-01-15T11:19:47;5.65;;;3.40;;
5060;SDS011;2549;52.128;21.068;2024-01-15T11:24:57;6.00;;;3.05;;
5060;SDS011;2549;52.128;21.068;2024-01-15T11:30:08;8.75;;;3.55;;
5060;SDS011;2549;52.128;21.068;2024-01-15T11:32:39;4.85;;;2.75;;
5060;SDS011;2549;52.128;21.068;2024-01-15T11:35:10;4.32;;;2.55;;
5060;SDS011;2549;52.128;21.068;2024-01-15T11:42:59;7.25;;;3.42;;
5060;SDS011;2549;52.128;21.068;2024-01-15T11:45:26;5.82;;;2.78;;
5060;SDS011;2549;52.128;21.068;2024-01-15T11:50:30;6.55;;;3.00;;
5060;SDS011;2549;52.128;21.068;2024-01-15T11:53:00;4.78;;;3.70;;
5060;SDS011;2549;52.128;21.068;2024-01-15T11:58:10;8.10;;;3.13;;
5060;SDS011;2549;52.128;21.068;2024-01-15T12:00:40;4.45;;;3.42;;
5060;SDS011;2549;52.128;21.068;2024-01-15T12:03:12;7.88;;;2.95;;
5060;SDS011;2549;52.128;21.068;2024-01-15T12:05:39;5.95;;;3.80;;
5060;SDS011;2549;52.128;21.068;2024-01-15T12:08:08;5.65;;;3.22;;
5060;SDS011;2549;52.128;21.068;2024-01-15T12:10:38;5.18;;;3.38;;
5060;SDS011;2549;52.128;21.068;2024-01-15T12:13:11;4.22;;;3.17;;
5060;SDS011;2549;52.128;21.068;2024-01-15T12:15:47;4.75;;;3.25;;
5060;SDS011;2549;52.128;21.068;2024-01-15T12:18:15;6.00;;;3.20;;
5060;SDS011;2549;52.128;21.068;2024-01-15T12:20:45;3.72;;;3.33;;
5060;SDS011;2549;52.128;21.068;2024-01-15T12:23:15;7.45;;;3.10;;
5060;SDS011;2549;52.128;21.068;2024-01-15T12:25:44;9.85;;;3.50;;
5060;SDS011;2549;52.128;21.068;2024-01-15T12:28:11;6.82;;;3.63;;
5060;SDS011;2549;52.128;21.068;2024-01-15T12:30:38;5.13;;;3.80;;
5060;SDS011;2549;52.128;21.068;2024-01-15T12:33:07;4.95;;;3.40;;
5060;SDS011;2549;52.128;21.068;2024-01-15T12:35:36;6.47;;;3.42;;
5060;SDS011;2549;52.128;21.068;2024-01-15T12:38:03;5.40;;;4.22;;
5060;SDS011;2549;52.128;21.068;2024-01-15T12:40:31;4.15;;;3.40;;
5060;SDS011;2549;52.128;21.068;2024-01-15T12:42:59;5.53;;;3.28;;
5060;SDS011;2549;52.128;21.068;2024-01-15T12:45:26;4.15;;;3.40;;
5060;SDS011;2549;52.128;21.068;2024-01-15T12:47:54;6.22;;;3.78;;
5060;SDS011;2549;52.128;21.068;2024-01-15T12:50:25;7.53;;;4.07;;
5060;SDS011;2549;52.128;21.068;2024-01-15T12:52:52;9.35;;;4.68;;
5060;SDS011;2549;52.128;21.068;2024-01-15T12:55:19;3.80;;;2.90;;
5060;SDS011;2549;52.128;21.068;2024-01-15T12:57:46;6.45;;;4.20;;
5060;SDS011;2549;52.128;21.068;2024-01-15T13:00:13;8.25;;;3.60;;
5060;SDS011;2549;52.128;21.068;2024-01-15T13:02:42;5.38;;;3.55;;
5060;SDS011;2549;52.128;21.068;2024-01-15T13:05:10;8.00;;;3.88;;
5060;SDS011;2549;52.128;21.068;2024-01-15T13:07:40;5.90;;;2.65;;
5060;SDS011;2549;52.128;21.068;2024-01-15T13:10:07;3.80;;;3.38;;
5060;SDS011;2549;52.128;21.068;2024-01-15T13:12:36;8.68;;;4.07;;
5060;SDS011;2549;52.128;21.068;2024-01-15T13:15:04;11.98;;;4.20;;
5060;SDS011;2549;52.128;21.068;2024-01-15T13:17:31;4.18;;;3.20;;
5060;SDS011;2549;52.128;21.068;2024-01-15T13:19:58;4.75;;;3.10;;
5060;SDS011;2549;52.128;21.068;2024-01-15T13:22:26;10.50;;;3.70;;
5060;SDS011;2549;52.128;21.068;2024-01-15T13:24:58;7.13;;;3.80;;
5060;SDS011;2549;52.128;21.068;2024-01-15T13:27:26;6.40;;;3.92;;
5060;SDS011;2549;52.128;21.068;2024-01-15T13:29:53;8.23;;;4.15;;
5060;SDS011;2549;52.128;21.068;2024-01-15T13:32:25;4.30;;;3.60;;
5060;SDS011;2549;52.128;21.068;2024-01-15T13:34:57;5.80;;;3.00;;
5060;SDS011;2549;52.128;21.068;2024-01-15T13:37:26;8.70;;;4.00;;
5060;SDS011;2549;52.128;21.068;2024-01-15T13:39:54;7.40;;;3.13;;
5060;SDS011;2549;52.128;21.068;2024-01-15T13:42:21;4.70;;;3.25;;
5060;SDS011;2549;52.128;21.068;2024-01-15T13:44:49;4.20;;;3.42;;
5060;SDS011;2549;52.128;21.068;2024-01-15T13:47:15;9.45;;;4.20;;
5060;SDS011;2549;52.128;21.068;2024-01-15T13:49:43;9.55;;;4.05;;
5060;SDS011;2549;52.128;21.068;2024-01-15T13:52:09;8.23;;;4.00;;
5060;SDS011;2549;52.128;21.068;2024-01-15T13:54:36;7.68;;;4.50;;
5060;SDS011;2549;52.128;21.068;2024-01-15T13:57:15;5.90;;;4.13;;
5060;SDS011;2549;52.128;21.068;2024-01-15T13:59:46;7.38;;;4.68;;
5060;SDS011;2549;52.128;21.068;2024-01-15T14:02:13;7.25;;;4.10;;
5060;SDS011;2549;52.128;21.068;2024-01-15T14:04:46;6.32;;;3.67;;
5060;SDS011;2549;52.128;21.068;2024-01-15T14:07:14;5.43;;;3.40;;
5060;SDS011;2549;52.128;21.068;2024-01-15T14:09:42;6.75;;;3.97;;
5060;SDS011;2549;52.128;21.068;2024-01-15T14:12:09;11.48;;;4.40;;
5060;SDS011;2549;52.128;21.068;2024-01-15T14:14:35;7.53;;;3.97;;
5060;SDS011;2549;52.128;21.068;2024-01-15T14:17:02;12.80;;;4.15;;
5060;SDS011;2549;52.128;21.068;2024-01-15T14:19:30;7.25;;;4.32;;
5060;SDS011;2549;52.128;21.068;2024-01-15T14:21:57;4.25;;;3.20;;
5060;SDS011;2549;52.128;21.068;2024-01-15T14:24:24;12.10;;;4.95;;
5060;SDS011;2549;52.128;21.068;2024-01-15T14:26:50;5.07;;;3.05;;
5060;SDS011;2549;52.128;21.068;2024-01-15T14:29:17;9.38;;;3.97;;
5060;SDS011;2549;52.128;21.068;2024-01-15T14:31:49;8.95;;;4.40;;
5060;SDS011;2549;52.128;21.068;2024-01-15T14:34:16;7.97;;;4.70;;
5060;SDS011;2549;52.128;21.068;2024-01-15T14:36:44;7.10;;;4.28;;
5060;SDS011;2549;52.128;21.068;2024-01-15T14:39:13;6.35;;;4.30;;
5060;SDS011;2549;52.128;21.068;2024-01-15T14:41:40;7.20;;;4.25;;
5060;SDS011;2549;52.128;21.068;2024-01-15T14:44:07;6.03;;;4.10;;
5060;SDS011;2549;52.128;21.068;2024-01-15T14:46:34;4.38;;;3.45;;
5060;SDS011;2549;52.128;21.068;2024-01-15T14:49:01;5.97;;;4.10;;
5060;SDS011;2549;52.128;21.068;2024-01-15T14:51:28;13.13;;;4.40;;
5060;SDS011;2549;52.128;21.068;2024-01-15T14:53:55;8.63;;;4.57;;
5060;SDS011;2549;52.128;21.068;2024-01-15T14:56:22;6.43;;;4.43;;
5060;SDS011;2549;52.128;21.068;2024-01-15T14:58:49;7.90;;;4.32;;
5060;SDS011;2549;52.128;21.068;2024-01-15T15:01:16;8.63;;;4.85;;
5060;SDS011;2549;52.128;21.068;2024-01-15T15:03:43;20.30;;;4.65;;
5060;SDS011;2549;52.128;21.068;2024-01-15T15:06:12;8.88;;;3.90;;
5060;SDS011;2549;52.128;21.068;2024-01-15T15:08:39;13.57;;;4.63;;
5060;SDS011;2549;52.128;21.068;2024-01-15T15:11:07;7.43;;;4.85;;
5060;SDS011;2549;52.128;21.068;2024-01-15T15:13:34;10.73;;;4.05;;
5060;SDS011;2549;52.128;21.068;2024-01-15T15:16:11;5.95;;;4.05;;
5060;SDS011;2549;52.128;21.068;2024-01-15T15:18:40;8.90;;;4.32;;